Huvudsida
METAR-TAF:

METAR-TAF

Flygplatser :

Liberal, Kansas, USA

latitud: 37-03N, longitud: 100-58W, höjd: 879 m

Aktuellt väderrapport

Denna rapport gjordes för 15 minuter sedan, klockan 01:56 UTC
Vind 9 kt från ost
Temperatur 4°C
Fuktighet 56%
Tryck 1016 hPa
Sikt: 16.1 km
Klar himmel

METAR: KLBL 250156Z AUTO 10009KT 10SM CLR 04/M04 A3000 RMK AO2 SLP173 T00441044

Tid: 20:11 (02:11 UTC)

Väderprognos

Denna rapport gjordes för 2 timmar och 36 minuter sedan, klockan 23:35 UTC
Prognos gäller från 25 kl. 00 UTC till 25 kl. 24 UTC
Vind 6 kt varierande vindriktning
Sikt: 10 km
Spridda moln på en höjd av 20000 ft

TAF: KLBL 242335Z 2500/2524 VRB06KT P6SM SCT200

Aktuella väderrapporter och prognoser från 4000 flygplatser (METAR- och TAF-rapporter).

De tillgängliga stationerna syns som gula och röda prickar på kartan.

För musen över prickarna för att se namnen på stationerna.

Klicka sedan för att få väderrapporter och prognoser.

För att ändra kartan: Klicka på de gröna knapparna med ett svart kors på för att zooma in; den gröna knappen med ett streck på för att zooma ut; eller på de gröna pilarna för angränsande kartor.


METAR-TAF: